Terminal Aerodrome Forecast
Issued by NWS Wilmington, OH

Current Version | Previous Version | Graphics & Text | Print | Product List | Glossary On
Versions: 1 2 3 4 5 6 7 8 9 10 11 12 13 14
024
FTUS41 KILN 240934 AAC
TAFILN
TAF AMD
KILN 240934Z 2410/2506 09008KT P6SM -SHRA OVC050
     FM241200 11012KT 5SM -SHRA BR BKN025 OVC040
     FM241800 10012KT 5SM BR VCSH OVC015
     FM242100 07007KT 5SM BR VCSH OVC012
     FM250200 01006KT P6SM OVC009=

USA.gov is the U.S. government's official web portal to all federal, state and local government web resources and services.